createdAt,value
2023-03-17T00:05:38.847Z,991.91
2023-03-17T00:11:22.747Z,991.79
2023-03-17T00:17:06.872Z,991.63
2023-03-17T00:22:51.013Z,991.55
2023-03-17T00:28:35.620Z,991.48
2023-03-17T00:34:19.747Z,991.48
2023-03-17T00:40:03.583Z,991.63
2023-03-17T00:45:47.231Z,991.58
2023-03-17T00:51:31.158Z,991.62
2023-03-17T00:57:14.838Z,991.63
2023-03-17T01:02:58.665Z,991.7
2023-03-17T01:08:43.757Z,991.64
2023-03-17T01:14:27.431Z,991.61
2023-03-17T01:20:14.854Z,991.54
2023-03-17T01:25:58.659Z,991.4
2023-03-17T01:31:44.595Z,991.31
2023-03-17T01:37:28.493Z,991.23
2023-03-17T01:43:21.938Z,991.21
2023-03-17T01:49:12.987Z,991.22
2023-03-17T01:54:58.654Z,991.26
2023-03-17T02:00:42.670Z,991.17
2023-03-17T02:06:26.984Z,990.99
2023-03-17T02:12:11.454Z,990.97
2023-03-17T02:17:55.271Z,990.91
2023-03-17T02:23:39.017Z,990.86
2023-03-17T02:29:23.951Z,990.9
2023-03-17T02:35:08.564Z,990.85
2023-03-17T02:40:52.213Z,990.93
2023-03-17T02:46:36.047Z,990.87
2023-03-17T02:52:19.664Z,990.91
2023-03-17T02:58:04.347Z,990.94
2023-03-17T03:03:48.296Z,991.08
2023-03-17T03:09:32.121Z,991.13
2023-03-17T03:15:16.724Z,991.25
2023-03-17T03:21:00.522Z,991.21
2023-03-17T03:26:44.342Z,991.29
2023-03-17T03:32:28.217Z,991.34
2023-03-17T03:38:12.485Z,991.22
2023-03-17T03:43:56.539Z,991.25
2023-03-17T03:49:40.402Z,991.3
2023-03-17T03:55:24.223Z,991.45
2023-03-17T04:01:09.629Z,991.45
2023-03-17T04:06:53.415Z,991.42
2023-03-17T04:12:37.366Z,991.44
2023-03-17T04:18:21.246Z,991.35
2023-03-17T04:24:06.213Z,991.35
2023-03-17T04:29:49.908Z,991.24
2023-03-17T04:35:33.868Z,991.28
2023-03-17T04:41:17.765Z,991.25
2023-03-17T04:47:01.575Z,991.27
2023-03-17T04:52:45.300Z,991.27
2023-03-17T04:58:32.097Z,991.33
2023-03-17T05:04:31.011Z,991.27
2023-03-17T05:10:15.031Z,991.36
2023-03-17T05:15:58.771Z,991.31
2023-03-17T05:21:42.669Z,991.32
2023-03-17T05:27:26.459Z,991.29
2023-03-17T05:33:10.205Z,991.19
2023-03-17T05:38:53.948Z,991.2
2023-03-17T05:44:37.699Z,991.17
2023-03-17T05:50:21.449Z,991.29
2023-03-17T05:56:05.338Z,991.29
2023-03-17T06:01:49.103Z,991.25
2023-03-17T06:07:50.396Z,991.36
2023-03-17T06:13:36.635Z,991.41
2023-03-17T06:19:20.470Z,991.32
2023-03-17T06:25:04.518Z,991.36
2023-03-17T06:30:48.199Z,991.16
2023-03-17T06:36:32.054Z,991.29
2023-03-17T06:42:17.052Z,991.08
2023-03-17T06:48:00.888Z,991.08
2023-03-17T06:53:44.550Z,991.22
2023-03-17T06:59:28.455Z,991.27
2023-03-17T07:05:12.463Z,991.26
2023-03-17T07:10:58.720Z,991.45
2023-03-17T07:16:42.629Z,991.53
2023-03-17T07:22:26.896Z,991.36
2023-03-17T07:28:10.603Z,991.39
2023-03-17T07:33:57.314Z,991.41
2023-03-17T07:39:41.114Z,991.35
2023-03-17T07:45:25.167Z,991.23
2023-03-17T07:51:11.255Z,991.24
2023-03-17T07:56:55.347Z,991.31
2023-03-17T08:02:39.426Z,991.29
2023-03-17T08:08:23.252Z,991.32
2023-03-17T08:14:07.362Z,991.43
2023-03-17T08:19:51.042Z,991.5
2023-03-17T08:25:35.192Z,991.38
2023-03-17T08:31:19.517Z,991.26
2023-03-17T08:37:04.492Z,991.31
2023-03-17T08:42:49.719Z,991.45
2023-03-17T08:48:33.696Z,991.41
2023-03-17T08:54:17.521Z,991.23
2023-03-17T09:00:01.346Z,991.28
2023-03-17T09:05:45.011Z,991.27
2023-03-17T09:11:30.259Z,991.26
2023-03-17T09:17:14.661Z,991.32
2023-03-17T09:22:58.247Z,991.33
2023-03-17T09:28:44.003Z,991.43
2023-03-17T09:34:27.980Z,991.43
2023-03-17T09:40:14.595Z,991.49
2023-03-17T09:46:01.540Z,991.49
2023-03-17T09:51:45.955Z,991.45
2023-03-17T09:57:32.983Z,991.41
2023-03-17T10:03:16.922Z,991.4
2023-03-17T10:09:02.253Z,991.39
2023-03-17T10:14:52.299Z,991.44
2023-03-17T10:20:39.548Z,991.32
2023-03-17T10:26:27.909Z,991.27
2023-03-17T10:32:12.997Z,991.37
2023-03-17T10:38:14.034Z,991.32
2023-03-17T10:43:58.391Z,991.28
2023-03-17T10:49:44.578Z,991.18
2023-03-17T10:55:29.246Z,991.02
2023-03-17T11:01:16.948Z,990.94
2023-03-17T11:07:05.886Z,991.01
2023-03-17T11:12:54.638Z,991.07
2023-03-17T11:18:39.373Z,991.04
2023-03-17T11:24:40.480Z,990.95
2023-03-17T11:30:31.480Z,991.04
2023-03-17T11:36:21.403Z,991
2023-03-17T11:42:12.235Z,990.86
2023-03-17T11:48:04.018Z,990.83
2023-03-17T11:54:00.310Z,990.73
2023-03-17T11:59:48.182Z,990.63
2023-03-17T12:05:35.168Z,990.7
2023-03-17T12:11:21.535Z,990.79
2023-03-17T12:17:10.106Z,990.73
2023-03-17T12:22:57.977Z,990.68
2023-03-17T12:28:44.854Z,990.77
2023-03-17T12:34:32.126Z,990.67
2023-03-17T12:40:18.494Z,990.62
2023-03-17T12:46:11.912Z,990.56
2023-03-17T12:52:02.593Z,990.5
2023-03-17T12:57:47.754Z,990.49
2023-03-17T13:03:32.885Z,990.38
2023-03-17T13:09:35.121Z,990.42
2023-03-17T13:15:27.230Z,990.28
2023-03-17T13:21:15.594Z,990.22
2023-03-17T13:27:01.259Z,990.22
2023-03-17T13:32:46.048Z,990.25
2023-03-17T13:38:42.089Z,990.24
2023-03-17T13:44:42.057Z,990.22
2023-03-17T13:50:32.136Z,990.26
2023-03-17T13:56:23.185Z,990.17
2023-03-17T14:02:12.848Z,990.13
2023-03-17T14:07:58.882Z,989.99
2023-03-17T14:13:47.495Z,990.05
2023-03-17T14:19:31.209Z,990.01
2023-03-17T14:25:20.303Z,990.09
2023-03-17T14:31:06.024Z,990.04
2023-03-17T14:36:51.674Z,990.04
2023-03-17T14:42:37.456Z,990.06
2023-03-17T14:48:23.468Z,990.13
2023-03-17T14:54:12.221Z,990.29
2023-03-17T15:00:02.445Z,990.3
2023-03-17T15:05:47.114Z,990.31
2023-03-17T15:11:35.873Z,990.34
2023-03-17T15:17:20.878Z,990.33
2023-03-17T15:23:05.905Z,990.3
2023-03-17T15:28:50.584Z,990.32
2023-03-17T15:34:34.335Z,990.33
2023-03-17T15:40:18.362Z,990.29
2023-03-17T15:46:03.912Z,990.37
2023-03-17T15:51:47.929Z,990.46
2023-03-17T15:57:31.525Z,990.46
2023-03-17T16:03:19.578Z,990.57
2023-03-17T16:09:03.373Z,990.53
2023-03-17T16:14:46.898Z,990.4
2023-03-17T16:20:33.228Z,990.52
2023-03-17T16:26:25.098Z,990.47
2023-03-17T16:32:10.292Z,990.49
2023-03-17T16:37:54.368Z,990.51
2023-03-17T16:43:38.146Z,990.55
2023-03-17T16:49:23.187Z,990.52
2023-03-17T16:55:07.288Z,990.47
2023-03-17T17:00:51.842Z,990.6
2023-03-17T17:06:35.628Z,990.63
2023-03-17T17:12:19.248Z,990.64
2023-03-17T17:18:04.308Z,990.63
2023-03-17T17:23:47.963Z,990.81
2023-03-17T17:29:35.139Z,990.92
2023-03-17T17:35:20.136Z,990.89
2023-03-17T17:41:04.227Z,990.92
2023-03-17T17:46:49.272Z,991
2023-03-17T17:52:33.159Z,990.93
2023-03-17T17:58:18.644Z,991.04
2023-03-17T18:04:13.082Z,991.02
2023-03-17T18:10:08.909Z,991
2023-03-17T18:16:04.429Z,991.03
2023-03-17T18:21:55.474Z,991.09
2023-03-17T18:27:40.860Z,991.19
2023-03-17T18:33:25.434Z,991.26
2023-03-17T18:39:11.814Z,991.42
2023-03-17T18:44:59.899Z,991.47
2023-03-17T18:50:56.844Z,991.53
2023-03-17T18:56:50.274Z,991.51
2023-03-17T19:02:39.894Z,991.53
2023-03-17T19:08:25.461Z,991.57
2023-03-17T19:14:13.764Z,991.55
2023-03-17T19:20:03.669Z,991.62
2023-03-17T19:25:53.755Z,991.68
2023-03-17T19:31:39.280Z,991.74
2023-03-17T19:37:30.329Z,991.8
2023-03-17T19:43:32.719Z,991.67
2023-03-17T19:49:23.535Z,991.63
2023-03-17T19:55:22.810Z,991.69
2023-03-17T20:01:10.198Z,991.66
2023-03-17T20:07:03.598Z,991.68
2023-03-17T20:12:48.457Z,991.7
2023-03-17T20:18:40.025Z,991.78
2023-03-17T20:24:27.872Z,991.81
2023-03-17T20:30:18.321Z,991.87
2023-03-17T20:36:13.064Z,991.78
2023-03-17T20:42:14.920Z,991.91
2023-03-17T20:48:13.940Z,992.13
2023-03-17T20:53:57.913Z,992.15
2023-03-17T20:59:42.327Z,991.95
2023-03-17T21:05:32.607Z,992.09
2023-03-17T21:11:23.226Z,992.02
2023-03-17T21:17:07.733Z,992.14
2023-03-17T21:22:53.445Z,992.15
2023-03-17T21:28:41.794Z,991.95
2023-03-17T21:34:32.742Z,992.1
2023-03-17T21:40:19.688Z,992.03
2023-03-17T21:46:12.328Z,991.99
2023-03-17T21:52:01.666Z,992.09
2023-03-17T21:57:47.835Z,992.12
2023-03-17T22:03:33.074Z,992.11
2023-03-17T22:09:36.526Z,992.1
2023-03-17T22:15:27.142Z,992.17
2023-03-17T22:21:12.285Z,992.17
2023-03-17T22:27:04.377Z,992.11
2023-03-17T22:32:48.546Z,992.13
2023-03-17T22:38:41.230Z,992.13
2023-03-17T22:44:31.864Z,992.11
2023-03-17T22:50:28.078Z,992.31
2023-03-17T22:56:19.829Z,992.49
2023-03-17T23:02:04.129Z,992.64
2023-03-17T23:07:51.949Z,992.76
2023-03-17T23:13:40.312Z,992.78
2023-03-17T23:19:25.223Z,992.59
2023-03-17T23:25:27.629Z,992.23
2023-03-17T23:31:23.671Z,992.29
2023-03-17T23:37:14.564Z,992.17
2023-03-17T23:43:07.937Z,992.28
2023-03-17T23:48:56.962Z,992.23
2023-03-17T23:54:46.886Z,992.21
